createdAt,value
2023-02-03T00:01:57.685Z,80.20
2023-02-03T00:04:24.478Z,80.20
2023-02-03T00:06:51.465Z,80.30
2023-02-03T00:09:19.066Z,80.30
2023-02-03T00:11:45.855Z,80.50
2023-02-03T00:14:12.520Z,80.70
2023-02-03T00:16:39.337Z,80.80
2023-02-03T00:19:06.067Z,80.50
2023-02-03T00:21:33.247Z,80.40
2023-02-03T00:23:59.918Z,80.30
2023-02-03T00:26:28.554Z,80.10
2023-02-03T00:28:55.205Z,80.40
2023-02-03T00:31:24.054Z,80.00
2023-02-03T00:33:56.042Z,80.20
2023-02-03T00:36:23.625Z,80.20
2023-02-03T00:38:50.457Z,80.30
2023-02-03T00:41:18.148Z,80.80
2023-02-03T00:43:45.054Z,80.40
2023-02-03T00:46:12.087Z,80.50
2023-02-03T00:48:38.900Z,80.60
2023-02-03T00:51:06.029Z,80.50
2023-02-03T00:53:32.948Z,80.70
2023-02-03T00:55:59.622Z,81.00
2023-02-03T00:58:26.473Z,80.50
2023-02-03T01:00:56.489Z,80.40
2023-02-03T01:03:24.441Z,80.30
2023-02-03T01:05:51.239Z,80.00
2023-02-03T01:08:19.594Z,79.90
2023-02-03T01:10:46.294Z,79.80
2023-02-03T01:13:13.001Z,79.30
2023-02-03T01:15:47.498Z,79.30
2023-02-03T01:18:14.460Z,79.40
2023-02-03T01:20:41.119Z,79.40
2023-02-03T01:23:07.780Z,79.20
2023-02-03T01:25:35.815Z,79.30
2023-02-03T01:28:02.596Z,79.20
2023-02-03T01:30:29.639Z,79.20
2023-02-03T01:32:56.730Z,79.20
2023-02-03T01:35:23.414Z,79.10
2023-02-03T01:37:50.114Z,79.10
2023-02-03T01:40:16.882Z,79.20
2023-02-03T01:42:43.560Z,78.30
2023-02-03T01:45:13.438Z,78.70
2023-02-03T01:47:52.878Z,78.40
2023-02-03T01:50:32.613Z,78.70
2023-02-03T01:53:12.241Z,78.40
2023-02-03T01:55:42.635Z,78.40
2023-02-03T01:58:22.321Z,78.30
2023-02-03T02:00:49.926Z,78.20
2023-02-03T02:03:19.698Z,77.90
2023-02-03T02:05:50.440Z,78.20
2023-02-03T02:08:19.933Z,77.60
2023-02-03T02:10:47.072Z,78.00
2023-02-03T02:13:15.620Z,78.10
2023-02-03T02:16:05.796Z,78.40
2023-02-03T02:19:05.569Z,78.60
2023-02-03T02:21:53.892Z,78.40
2023-02-03T02:24:45.759Z,78.50
2023-02-03T02:27:19.893Z,78.60
2023-02-03T02:30:24.797Z,79.00
2023-02-03T02:33:19.921Z,78.00
2023-02-03T02:39:08.289Z,78.20
2023-02-03T02:41:41.296Z,78.60
2023-02-03T02:44:14.243Z,78.10
2023-02-03T02:46:49.188Z,77.90
2023-02-03T02:49:46.334Z,77.30
2023-02-03T02:52:16.298Z,77.50
2023-02-03T02:54:47.922Z,77.30
2023-02-03T02:57:17.817Z,76.80
2023-02-03T02:59:46.599Z,76.90
2023-02-03T03:02:13.616Z,77.20
2023-02-03T03:04:41.895Z,76.70
2023-02-03T03:07:16.630Z,76.90
2023-02-03T03:09:48.759Z,76.40
2023-02-03T03:12:26.867Z,76.60
2023-02-03T03:15:03.778Z,76.70
2023-02-03T03:17:43.715Z,77.00
2023-02-03T03:20:19.536Z,77.20
2023-02-03T03:22:51.418Z,77.50
2023-02-03T03:25:27.140Z,77.90
2023-02-03T03:28:01.956Z,77.70
2023-02-03T03:30:37.273Z,77.60
2023-02-03T03:33:05.994Z,77.70
2023-02-03T03:35:58.942Z,77.50
2023-02-03T03:38:34.510Z,77.00
2023-02-03T03:41:14.967Z,77.60
2023-02-03T03:43:45.036Z,77.50
2023-02-03T03:46:17.268Z,77.40
2023-02-03T03:48:55.753Z,77.30
2023-02-03T03:51:37.022Z,77.60
2023-02-03T03:54:10.609Z,77.40
2023-02-03T03:56:45.273Z,77.20
2023-02-03T03:59:16.914Z,77.10
2023-02-03T04:01:44.253Z,77.20
2023-02-03T04:04:11.768Z,77.20
2023-02-03T04:06:39.761Z,76.90
2023-02-03T04:09:06.782Z,77.10
2023-02-03T04:11:52.328Z,77.60
2023-02-03T04:14:19.009Z,77.20
2023-02-03T04:16:45.674Z,77.40
2023-02-03T04:19:12.337Z,77.50
2023-02-03T04:21:39.014Z,77.40
2023-02-03T04:24:05.903Z,77.60
2023-02-03T04:26:32.614Z,77.20
2023-02-03T04:28:59.229Z,76.90
2023-02-03T04:31:26.042Z,77.20
2023-02-03T04:33:52.745Z,77.20
2023-02-03T04:36:19.413Z,76.90
2023-02-03T04:38:46.068Z,77.10
2023-02-03T04:41:12.763Z,77.90
2023-02-03T04:43:39.455Z,77.50
2023-02-03T04:46:06.215Z,77.60
2023-02-03T04:48:33.071Z,77.70
2023-02-03T04:51:04.927Z,78.30
2023-02-03T04:53:31.695Z,78.40
2023-02-03T04:55:58.453Z,78.60
2023-02-03T04:58:26.910Z,78.90
2023-02-03T05:00:54.764Z,78.80
2023-02-03T05:03:24.154Z,78.80
2023-02-03T05:05:52.437Z,78.50
2023-02-03T05:08:19.145Z,78.90
2023-02-03T05:10:46.262Z,79.00
2023-02-03T05:13:12.893Z,78.80
2023-02-03T05:15:39.526Z,79.30
2023-02-03T05:18:06.284Z,79.10
2023-02-03T05:20:32.916Z,78.90
2023-02-03T05:23:01.094Z,78.60
2023-02-03T05:25:27.744Z,78.60
2023-02-03T05:27:54.435Z,78.50
2023-02-03T05:30:21.296Z,78.50
2023-02-03T05:32:49.462Z,78.60
2023-02-03T05:35:16.171Z,78.60
2023-02-03T05:37:48.975Z,78.60
2023-02-03T05:40:34.444Z,78.00
2023-02-03T05:43:01.167Z,77.90
2023-02-03T05:45:27.843Z,77.80
2023-02-03T05:47:54.574Z,77.70
2023-02-03T05:50:22.782Z,77.60
2023-02-03T05:52:50.068Z,77.40
2023-02-03T05:55:16.835Z,77.20
2023-02-03T05:57:43.646Z,77.50
2023-02-03T06:00:10.927Z,77.70
2023-02-03T06:02:40.330Z,77.50
2023-02-03T06:05:07.307Z,77.20
2023-02-03T06:07:33.948Z,77.40
2023-02-03T06:10:00.584Z,76.80
2023-02-03T06:12:29.127Z,75.90
2023-02-03T06:14:56.211Z,76.50
2023-02-03T06:17:22.877Z,75.70
2023-02-03T06:19:49.552Z,75.70
2023-02-03T06:22:16.213Z,75.40
2023-02-03T06:24:44.799Z,76.20
2023-02-03T06:27:12.002Z,75.40
2023-02-03T06:29:38.686Z,74.80
2023-02-03T06:32:05.532Z,75.20
2023-02-03T06:34:33.117Z,75.20
2023-02-03T06:37:00.006Z,75.00
2023-02-03T06:39:26.812Z,75.30
2023-02-03T06:41:53.488Z,75.90
2023-02-03T06:44:20.141Z,75.50
2023-02-03T06:46:46.839Z,75.40
2023-02-03T06:49:13.612Z,75.40
2023-02-03T06:51:40.271Z,75.80
2023-02-03T06:54:07.710Z,75.90
2023-02-03T06:56:34.405Z,75.90
2023-02-03T06:59:01.068Z,76.40
2023-02-03T07:01:27.867Z,76.80
2023-02-03T07:03:57.789Z,75.90
2023-02-03T07:06:30.808Z,76.30
2023-02-03T07:09:00.712Z,76.30
2023-02-03T07:11:28.673Z,76.50
2023-02-03T07:13:55.345Z,76.10
2023-02-03T07:16:22.116Z,76.30
2023-02-03T07:18:49.522Z,76.70
2023-02-03T07:21:16.669Z,76.00
2023-02-03T07:23:43.773Z,76.20
2023-02-03T07:26:11.115Z,76.40
2023-02-03T07:28:37.922Z,76.50
2023-02-03T07:31:05.042Z,76.30
2023-02-03T07:33:32.179Z,76.30
2023-02-03T07:35:59.961Z,75.90
2023-02-03T07:38:28.019Z,75.60
2023-02-03T07:40:54.905Z,74.90
2023-02-03T07:43:21.576Z,74.10
2023-02-03T07:45:48.362Z,73.90
2023-02-03T07:48:15.161Z,73.40
2023-02-03T07:50:41.905Z,73.50
2023-02-03T07:53:11.615Z,73.60
2023-02-03T07:55:39.873Z,73.20
2023-02-03T07:58:06.943Z,73.00
2023-02-03T08:00:34.306Z,73.00
2023-02-03T08:03:00.994Z,73.30
2023-02-03T08:05:27.720Z,73.30
2023-02-03T08:07:54.429Z,72.90
2023-02-03T08:10:21.077Z,72.80
2023-02-03T08:12:48.089Z,72.80
2023-02-03T08:15:15.056Z,73.00
2023-02-03T08:17:42.071Z,73.70
2023-02-03T08:20:09.776Z,73.80
2023-02-03T08:22:36.596Z,73.80
2023-02-03T08:25:03.892Z,73.60
2023-02-03T08:27:31.898Z,74.00
2023-02-03T08:29:59.342Z,73.90
2023-02-03T08:32:26.639Z,74.00
2023-02-03T08:34:53.835Z,74.30
2023-02-03T08:37:24.308Z,73.70
2023-02-03T08:39:51.894Z,73.60
2023-02-03T08:42:19.436Z,73.70
2023-02-03T08:44:46.321Z,73.50
2023-02-03T08:47:13.372Z,73.70
2023-02-03T08:49:40.072Z,73.30
2023-02-03T08:52:08.981Z,73.90
2023-02-03T08:54:35.668Z,73.50
2023-02-03T08:57:02.449Z,73.70
2023-02-03T08:59:30.184Z,74.20
2023-02-03T09:01:59.762Z,74.10
2023-02-03T09:04:26.501Z,74.00
2023-02-03T09:06:54.516Z,73.90
2023-02-03T09:09:21.928Z,73.90
2023-02-03T09:11:48.878Z,74.40
2023-02-03T09:14:15.533Z,74.50
2023-02-03T09:16:42.328Z,73.40
2023-02-03T09:19:09.211Z,73.50
2023-02-03T09:21:37.262Z,73.90
2023-02-03T09:24:05.550Z,73.20
2023-02-03T09:26:32.222Z,73.20
2023-02-03T09:28:58.873Z,73.10
2023-02-03T09:31:25.627Z,72.80
2023-02-03T09:33:52.287Z,72.40
2023-02-03T09:36:19.033Z,71.80
2023-02-03T09:38:45.684Z,71.30
2023-02-03T09:41:51.594Z,71.40
2023-02-03T09:44:39.354Z,71.10
2023-02-03T09:47:14.630Z,70.80
2023-02-03T09:49:50.413Z,70.90
2023-02-03T09:52:54.171Z,70.70
2023-02-03T09:55:39.954Z,70.80
2023-02-03T09:58:11.855Z,70.10
2023-02-03T10:00:44.501Z,70.30
2023-02-03T10:03:43.179Z,70.40
2023-02-03T10:06:23.669Z,69.60
2023-02-03T10:09:08.062Z,69.40
2023-02-03T10:11:45.886Z,69.10
2023-02-03T10:14:30.563Z,69.30
2023-02-03T10:16:57.227Z,69.20
2023-02-03T10:19:36.271Z,69.30
2023-02-03T10:22:05.435Z,69.60
2023-02-03T10:24:40.509Z,68.70
2023-02-03T10:27:17.641Z,69.30
2023-02-03T10:29:44.743Z,69.30
2023-02-03T10:32:12.884Z,68.70
2023-02-03T10:34:43.491Z,69.40
2023-02-03T10:37:41.780Z,68.50
2023-02-03T10:40:13.123Z,68.20
2023-02-03T10:42:58.842Z,68.00
2023-02-03T10:45:25.574Z,68.00
2023-02-03T10:47:55.067Z,68.10
2023-02-03T10:50:31.552Z,68.10
2023-02-03T10:53:22.358Z,67.30
2023-02-03T10:55:52.499Z,67.40
2023-02-03T10:58:27.359Z,67.50
2023-02-03T11:01:13.572Z,68.10
2023-02-03T11:03:44.028Z,67.60
2023-02-03T11:06:12.491Z,68.00
2023-02-03T11:08:43.028Z,68.20
2023-02-03T11:11:14.631Z,67.90
2023-02-03T11:13:41.369Z,68.50
2023-02-03T11:16:18.313Z,68.30
2023-02-03T11:18:52.575Z,67.90
2023-02-03T11:21:31.887Z,68.00
2023-02-03T11:24:20.983Z,67.40
2023-02-03T11:26:53.887Z,68.40
2023-02-03T11:29:31.827Z,67.80
2023-02-03T11:32:03.272Z,68.50
2023-02-03T11:34:34.421Z,68.30
2023-02-03T11:37:27.325Z,68.50
2023-02-03T11:40:12.205Z,68.40
2023-02-03T11:42:49.445Z,68.50
2023-02-03T11:45:26.569Z,68.20
2023-02-03T11:48:11.836Z,67.70
2023-02-03T11:51:00.183Z,67.80
2023-02-03T11:53:56.959Z,67.60
2023-02-03T11:56:54.982Z,67.10
2023-02-03T11:59:45.329Z,68.00
2023-02-03T12:02:38.677Z,68.00
2023-02-03T12:05:17.562Z,67.10
2023-02-03T12:07:50.151Z,67.40
2023-02-03T12:10:31.569Z,67.80
2023-02-03T12:13:10.434Z,67.40
2023-02-03T12:16:17.322Z,67.40
2023-02-03T12:19:09.958Z,67.80
2023-02-03T12:22:09.821Z,67.70
2023-02-03T12:25:08.607Z,67.60
2023-02-03T12:27:56.108Z,67.30
2023-02-03T12:30:28.857Z,67.50
2023-02-03T12:33:00.269Z,67.90
2023-02-03T12:35:34.637Z,66.90
2023-02-03T12:38:12.323Z,66.90
2023-02-03T12:40:49.419Z,67.40
2023-02-03T12:43:23.538Z,67.00
2023-02-03T12:46:14.618Z,67.10
2023-02-03T12:49:00.565Z,66.20
2023-02-03T12:51:51.062Z,66.30
2023-02-03T12:54:45.289Z,66.50
2023-02-03T12:57:17.121Z,66.40
2023-02-03T12:59:46.582Z,67.30
2023-02-03T13:02:26.954Z,66.60
2023-02-03T13:05:10.349Z,67.30
2023-02-03T13:07:43.410Z,67.00
2023-02-03T13:10:33.062Z,67.90
2023-02-03T13:13:01.149Z,67.30
2023-02-03T13:15:32.747Z,67.10
2023-02-03T13:18:15.475Z,67.00
2023-02-03T13:20:42.089Z,67.20
2023-02-03T13:23:13.720Z,67.10
2023-02-03T13:26:08.827Z,67.20
2023-02-03T13:29:02.097Z,67.70
2023-02-03T13:31:47.382Z,67.90
2023-02-03T13:34:37.073Z,67.00
2023-02-03T13:37:15.859Z,67.20
2023-02-03T13:39:42.508Z,67.70
2023-02-03T13:42:25.940Z,67.70
2023-02-03T13:45:04.586Z,66.60
2023-02-03T13:47:32.663Z,66.70
2023-02-03T13:50:15.869Z,67.20
2023-02-03T13:52:56.301Z,67.50
2023-02-03T13:55:43.438Z,67.30
2023-02-03T13:58:34.202Z,67.60
2023-02-03T14:01:21.705Z,67.70
2023-02-03T14:03:48.604Z,67.20
2023-02-03T14:06:40.243Z,67.50
2023-02-03T14:09:35.609Z,67.80
2023-02-03T14:12:30.693Z,67.20
2023-02-03T14:15:19.794Z,67.60
2023-02-03T14:17:46.501Z,67.30
2023-02-03T14:20:28.184Z,67.60
2023-02-03T14:22:59.316Z,68.00
2023-02-03T14:25:27.331Z,67.10
2023-02-03T14:28:05.609Z,67.90
2023-02-03T14:30:32.383Z,68.70
2023-02-03T14:33:02.786Z,68.90
2023-02-03T14:35:40.642Z,68.50
2023-02-03T14:38:13.193Z,68.90
2023-02-03T14:40:39.774Z,68.50
2023-02-03T14:43:24.222Z,68.50
2023-02-03T14:46:05.159Z,68.90
2023-02-03T14:48:40.418Z,68.80
2023-02-03T14:51:09.924Z,68.70
2023-02-03T14:53:58.653Z,68.80
2023-02-03T14:57:04.162Z,69.20
2023-02-03T14:59:40.392Z,70.00
2023-02-03T15:02:09.420Z,69.70
2023-02-03T15:19:55.051Z,69.90
2023-02-03T15:22:23.325Z,70.20
2023-02-03T15:24:54.149Z,70.20
2023-02-03T15:27:25.515Z,70.00
2023-02-03T15:32:32.800Z,69.70
2023-02-03T15:35:03.097Z,70.50
2023-02-03T15:37:36.070Z,70.80
2023-02-03T15:40:18.351Z,70.70
2023-02-03T15:43:02.606Z,71.30
2023-02-03T15:45:39.837Z,71.00
2023-02-03T15:48:15.837Z,71.20
2023-02-03T15:50:44.112Z,71.30
2023-02-03T15:53:46.710Z,71.50
2023-02-03T15:56:41.004Z,71.40
2023-02-03T15:59:48.457Z,71.50
2023-02-03T16:02:19.811Z,71.90
2023-02-03T16:04:46.783Z,71.70
2023-02-03T16:07:26.479Z,71.70
2023-02-03T16:09:58.201Z,71.30
2023-02-03T16:12:32.543Z,71.60
2023-02-03T16:15:01.587Z,71.80
2023-02-03T16:17:34.786Z,71.90
2023-02-03T16:20:10.646Z,71.90
2023-02-03T16:22:38.816Z,71.60
2023-02-03T16:25:42.229Z,72.10
2023-02-03T16:28:27.467Z,72.20
2023-02-03T16:31:33.047Z,72.30
2023-02-03T16:34:20.417Z,72.70
2023-02-03T16:37:05.966Z,72.80
2023-02-03T16:39:51.446Z,72.40
2023-02-03T16:42:39.143Z,72.80
2023-02-03T16:45:37.032Z,73.10
2023-02-03T16:48:22.979Z,73.10
2023-02-03T16:50:59.734Z,73.40
2023-02-03T16:53:30.254Z,73.00
2023-02-03T16:55:59.306Z,72.70
2023-02-03T16:58:26.618Z,73.00
2023-02-03T17:00:54.446Z,73.20
2023-02-03T17:03:24.030Z,73.50
2023-02-03T17:05:51.738Z,73.20
2023-02-03T17:08:20.811Z,73.40
2023-02-03T17:10:48.057Z,72.90
2023-02-03T17:13:15.922Z,73.20
2023-02-03T17:15:45.089Z,73.40
2023-02-03T17:18:14.867Z,73.60
2023-02-03T17:20:42.724Z,73.40
2023-02-03T17:23:09.746Z,73.50
2023-02-03T17:25:39.534Z,73.50
2023-02-03T17:28:08.332Z,74.20
2023-02-03T17:30:35.543Z,74.20
2023-02-03T17:33:11.667Z,73.90
2023-02-03T17:35:39.949Z,73.70
2023-02-03T17:38:06.892Z,73.40
2023-02-03T17:54:17.782Z,72.50
2023-02-03T17:56:47.478Z,72.70
2023-02-03T17:59:15.018Z,72.50
2023-02-03T18:01:42.243Z,72.20
2023-02-03T18:04:09.009Z,72.30
2023-02-03T18:06:36.072Z,71.90
2023-02-03T18:09:05.912Z,72.70
2023-02-03T18:11:34.813Z,73.10
2023-02-03T18:14:02.546Z,73.10
2023-02-03T18:16:34.776Z,73.90
2023-02-03T18:19:03.819Z,73.50
2023-02-03T18:21:32.283Z,74.00
2023-02-03T18:24:01.609Z,74.30
2023-02-03T18:26:32.398Z,74.80
2023-02-03T18:28:59.198Z,75.50
2023-02-03T18:31:26.028Z,75.90
2023-02-03T18:33:53.373Z,76.40
2023-02-03T18:36:20.802Z,77.20
2023-02-03T18:38:48.158Z,77.60
2023-02-03T18:41:18.003Z,78.10
2023-02-03T18:43:45.768Z,77.60
2023-02-03T18:46:17.885Z,76.70
2023-02-03T18:48:44.868Z,77.10
2023-02-03T18:51:14.164Z,77.80
2023-02-03T18:53:41.844Z,78.00
2023-02-03T18:56:10.054Z,78.00
2023-02-03T18:58:37.723Z,76.70
2023-02-03T19:01:04.744Z,76.80
2023-02-03T19:03:31.492Z,77.10
2023-02-03T19:05:58.177Z,77.10
2023-02-03T19:08:24.904Z,77.10
2023-02-03T19:10:53.572Z,77.50
2023-02-03T19:13:21.899Z,77.30
2023-02-03T19:15:48.831Z,77.10
2023-02-03T19:18:16.229Z,77.10
2023-02-03T19:20:43.811Z,77.50
2023-02-03T19:23:13.342Z,77.40
2023-02-03T19:25:40.470Z,77.80
2023-02-03T19:28:14.166Z,77.80
2023-02-03T19:30:44.391Z,77.80
2023-02-03T19:33:11.651Z,77.60
2023-02-03T19:35:38.543Z,78.10
2023-02-03T19:38:05.616Z,78.40
2023-02-03T19:40:32.641Z,78.80
2023-02-03T19:42:59.600Z,79.20
2023-02-03T19:45:26.865Z,79.50
2023-02-03T19:47:53.571Z,80.40
2023-02-03T19:50:20.226Z,80.60
2023-02-03T19:52:48.585Z,80.90
2023-02-03T19:55:16.138Z,80.90
2023-02-03T19:57:42.894Z,80.60
2023-02-03T20:00:10.356Z,80.90
2023-02-03T20:02:45.257Z,80.80
2023-02-03T20:05:12.115Z,81.20
2023-02-03T20:07:38.948Z,81.30
2023-02-03T20:10:06.329Z,81.50
2023-02-03T20:12:33.052Z,82.00
2023-02-03T20:15:02.518Z,82.30
2023-02-03T20:17:29.310Z,82.70
2023-02-03T20:19:55.994Z,82.70
2023-02-03T20:22:23.046Z,82.90
2023-02-03T20:24:49.755Z,82.90
2023-02-03T20:27:17.825Z,83.30
2023-02-03T20:29:44.710Z,83.30
2023-02-03T20:32:11.597Z,83.60
2023-02-03T20:34:38.444Z,84.20
2023-02-03T20:37:06.640Z,84.40
2023-02-03T20:39:33.592Z,84.30
2023-02-03T20:42:00.456Z,84.70
2023-02-03T20:44:27.264Z,84.60
2023-02-03T20:46:55.748Z,84.30
2023-02-03T20:49:22.473Z,84.40
2023-02-03T20:51:50.022Z,84.70
2023-02-03T20:54:19.441Z,85.10
2023-02-03T20:56:46.241Z,84.90
2023-02-03T20:59:16.789Z,85.20
2023-02-03T21:01:43.723Z,85.00
2023-02-03T21:04:33.854Z,85.20
2023-02-03T21:07:01.453Z,85.40
2023-02-03T21:09:28.109Z,85.70
2023-02-03T21:11:55.355Z,85.50
2023-02-03T21:14:33.493Z,85.70
2023-02-03T21:17:00.595Z,86.00
2023-02-03T21:19:33.235Z,86.00
2023-02-03T21:22:07.350Z,86.10
2023-02-03T21:24:36.653Z,86.00
2023-02-03T21:27:24.310Z,86.30
2023-02-03T21:29:55.563Z,86.10
2023-02-03T21:32:24.032Z,86.00
2023-02-03T21:34:51.229Z,86.40
2023-02-03T21:37:20.989Z,86.40
2023-02-03T21:39:49.117Z,86.40
2023-02-03T21:42:40.803Z,86.20
2023-02-03T21:45:16.872Z,86.20
2023-02-03T21:47:45.189Z,86.60
2023-02-03T21:50:31.980Z,86.80
2023-02-03T21:53:07.971Z,87.10
2023-02-03T21:55:39.939Z,87.30
2023-02-03T21:58:30.301Z,87.40
2023-02-03T22:00:59.649Z,87.60
2023-02-03T22:03:29.922Z,87.30
2023-02-03T22:06:08.773Z,87.50
2023-02-03T22:08:40.494Z,87.60
2023-02-03T22:11:07.363Z,87.60
2023-02-03T22:13:34.331Z,87.70
2023-02-03T22:16:01.252Z,87.40
2023-02-03T22:18:27.967Z,87.50
2023-02-03T22:20:54.689Z,87.70
2023-02-03T22:23:21.723Z,88.00
2023-02-03T22:25:48.709Z,88.10
2023-02-03T22:28:15.635Z,88.20
2023-02-03T22:30:42.457Z,88.40
2023-02-03T22:33:09.573Z,88.30
2023-02-03T22:35:36.299Z,88.10
2023-02-03T22:38:02.997Z,88.20
2023-02-03T22:40:29.899Z,88.10
2023-02-03T22:42:56.907Z,88.30
2023-02-03T22:45:23.571Z,88.30
2023-02-03T22:47:50.280Z,88.60
2023-02-03T22:50:20.379Z,88.70
2023-02-03T22:52:50.723Z,88.90
2023-02-03T22:55:17.479Z,89.00
2023-02-03T22:57:44.169Z,89.00
2023-02-03T23:00:11.902Z,89.10
2023-02-03T23:02:39.736Z,89.30
2023-02-03T23:05:10.013Z,89.40
2023-02-03T23:07:37.297Z,89.50
2023-02-03T23:10:05.519Z,89.50
2023-02-03T23:12:32.231Z,89.30
2023-02-03T23:14:59.067Z,89.40
2023-02-03T23:17:25.875Z,89.10
2023-02-03T23:19:52.510Z,89.30
2023-02-03T23:22:19.232Z,89.10
2023-02-03T23:24:45.925Z,88.90
2023-02-03T23:27:12.938Z,88.90
2023-02-03T23:29:39.726Z,88.80
2023-02-03T23:32:07.727Z,88.50
2023-02-03T23:34:53.259Z,88.40
2023-02-03T23:37:20.020Z,88.60
2023-02-03T23:39:46.703Z,88.70
2023-02-03T23:42:13.370Z,89.10
2023-02-03T23:44:40.381Z,89.00
2023-02-03T23:47:07.289Z,89.00
2023-02-03T23:49:33.976Z,88.90
2023-02-03T23:52:00.661Z,88.80
2023-02-03T23:54:27.360Z,89.10
2023-02-03T23:56:54.120Z,89.00
2023-02-03T23:59:20.820Z,89.10
